Time;durP1;ratioP1;P1;durP2;ratioP2;P2;SDS_P1;SDS_P2;PMS_P1;PMS_P2;Temp;Humidity;BMP_temperature;BMP_pressure;BME280_temperature;BME280_humidity;BME280_pressure;Samples;Min_cycle;Max_cycle;Signal;HPM_P1;HPM_P2
2021/06/21 00:02:12;;;;;;;;;;;;;;;19.70;71.12;100639.97;5113910;28;20003;-40
2021/06/21 00:04:38;;;;;;;;;;;;;;;19.64;72.66;100652.13;5112245;28;19908;-40
2021/06/21 00:07:03;;;;;;;;;;;;;;;19.56;73.00;100650.00;5113861;28;19912;-40
2021/06/21 00:09:28;;;;;;;;;;;;;;;19.47;73.94;100646.28;5114216;28;19933;-40
2021/06/21 00:11:53;;;;;;;;;;;;;;;19.46;73.53;100650.16;5114375;28;19991;-40
2021/06/21 00:14:19;;;;;;;;;;;;;;;19.38;73.22;100640.69;5113890;28;19930;-40
2021/06/21 00:16:44;;;;;;;;;;;;;;;19.40;73.32;100643.94;5116056;28;20001;-40
2021/06/21 00:19:09;;;;;;;;;;;;;;;19.32;74.74;100639.09;5117346;28;20319;-40
2021/06/21 00:21:34;;;;;;;;;;;;;;;19.30;73.67;100636.66;5116027;28;19946;-40
2021/06/21 00:24:00;;;;;;;;;;;;;;;19.16;75.86;100635.75;5117265;28;19962;-40
2021/06/21 00:26:25;;;;;;;;;;;;;;;19.09;74.69;100626.25;5118006;28;19999;-40
2021/06/21 00:28:50;;;;;;;;;;;;;;;19.12;74.67;100633.88;5117441;28;20312;-41
2021/06/21 00:31:15;;;;;;;;;;;;;;;19.13;74.93;100636.34;5118053;28;19907;-40
2021/06/21 00:33:41;;;;;;;;;;;;;;;19.11;75.75;100643.22;5117324;28;19998;-40
2021/06/21 00:36:06;;;;;;;;;;;;;;;19.01;76.34;100638.66;5117635;28;19907;-40
2021/06/21 00:38:31;;;;;;;;;;;;;;;18.90;77.34;100637.16;5116995;28;20371;-40
2021/06/21 00:40:57;;;;;;;;;;;;;;;18.90;75.80;100646.19;5117444;28;19957;-41
2021/06/21 00:43:22;;;;;;;;;;;;;;;18.85;76.99;100638.03;5117230;27;19912;-40
2021/06/21 00:45:48;;;;;;;;;;;;;;;18.77;75.59;100633.19;5117618;28;19956;-40
2021/06/21 00:48:13;;;;;;;;;;;;;;;18.75;76.74;100636.22;5117057;28;19908;-40
2021/06/21 00:50:39;;;;;;;;;;;;;;;18.76;76.39;100631.56;5116869;28;19915;-40
2021/06/21 00:53:04;;;;;;;;;;;;;;;18.79;75.38;100625.50;5117242;28;19908;-40
2021/06/21 00:55:30;;;;;;;;;;;;;;;18.87;75.22;100622.13;5117367;28;20006;-40
2021/06/21 00:57:55;;;;;;;;;;;;;;;18.76;76.25;100631.56;5116915;28;19915;-40
2021/06/21 01:00:21;;;;;;;;;;;;;;;18.75;75.47;100627.19;5117567;28;19990;-40
2021/06/21 01:02:47;;;;;;;;;;;;;;;18.72;75.86;100619.56;5116878;28;19907;-40
2021/06/21 01:05:13;;;;;;;;;;;;;;;18.72;78.04;100631.31;5116839;28;19915;-40
2021/06/21 01:07:40;;;;;;;;;;;;;;;18.66;76.09;100626.97;5116795;28;19908;-41
2021/06/21 01:10:06;;;;;;;;;;;;;;;18.65;77.04;100624.53;5117017;28;19914;-40
2021/06/21 01:12:50;;;;;;;;;;;;;;;18.63;76.31;100633.03;5116701;28;19947;-41
2021/06/21 01:15:20;;;;;;;;;;;;;;;18.65;76.38;100635.50;5116996;28;20266;-40
2021/06/21 01:17:52;;;;;;;;;;;;;;;18.63;77.13;100641.25;5116852;28;19908;-40
2021/06/21 01:20:35;;;;;;;;;;;;;;;18.60;77.41;100638.28;5116975;28;19907;-40
2021/06/21 01:23:18;;;;;;;;;;;;;;;18.53;76.24;100639.41;5116514;28;19912;-40
2021/06/21 01:25:46;;;;;;;;;;;;;;;18.45;77.08;100639.25;5117062;28;19908;-40
2021/06/21 01:28:30;;;;;;;;;;;;;;;18.41;76.70;100640.94;5116216;28;19908;-40
2021/06/21 01:31:06;;;;;;;;;;;;;;;18.35;77.76;100633.84;5116741;28;20255;-40
2021/06/21 01:33:32;;;;;;;;;;;;;;;18.26;77.76;100634.50;5116137;28;19908;-40
2021/06/21 01:35:59;;;;;;;;;;;;;;;18.19;77.38;100639.47;5116811;28;20267;-40
2021/06/21 01:38:27;;;;;;;;;;;;;;;18.13;77.88;100640.63;5116778;28;20225;-40
2021/06/21 01:40:53;;;;;;;;;;;;;;;18.06;77.17;100639.31;5116626;28;20017;-40
2021/06/21 01:43:21;;;;;;;;;;;;;;;17.96;78.11;100645.69;5116904;28;19919;-40
2021/06/21 01:45:47;;;;;;;;;;;;;;;17.81;78.40;100657.53;5115717;28;19912;-40
2021/06/21 01:48:13;;;;;;;;;;;;;;;17.75;79.06;100667.69;5116097;28;19961;-40
2021/06/21 01:50:39;;;;;;;;;;;;;;;17.74;79.09;100677.00;5116308;28;20228;-40
2021/06/21 01:53:06;;;;;;;;;;;;;;;17.62;78.83;100656.53;5115910;28;19968;-40
2021/06/21 01:55:33;;;;;;;;;;;;;;;17.46;80.00;100655.78;5115947;28;19990;-40
2021/06/21 01:57:59;;;;;;;;;;;;;;;17.48;78.60;100650.88;5116691;27;19914;-40
2021/06/21 02:00:25;;;;;;;;;;;;;;;17.46;79.57;100636.66;5116132;28;19930;-40
2021/06/21 02:02:52;;;;;;;;;;;;;;;17.30;79.90;100637.84;5115993;28;19911;-40
2021/06/21 02:05:17;;;;;;;;;;;;;;;17.24;80.27;100642.53;5115970;27;19915;-40
2021/06/21 02:07:44;;;;;;;;;;;;;;;17.20;80.63;100647.72;5115581;28;19907;-40
2021/06/21 02:10:12;;;;;;;;;;;;;;;17.20;79.74;100638.72;5115613;28;20359;-40
2021/06/21 02:12:38;;;;;;;;;;;;;;;17.21;79.03;100632.94;5115788;28;19930;-40
2021/06/21 02:15:04;;;;;;;;;;;;;;;17.17;79.26;100631.88;5116375;27;19907;-40
2021/06/21 02:17:30;;;;;;;;;;;;;;;17.17;78.66;100642.00;5115388;28;19915;-40
2021/06/21 02:19:56;;;;;;;;;;;;;;;17.17;79.61;100640.06;5116302;28;19907;-40
2021/06/21 02:22:22;;;;;;;;;;;;;;;17.01;80.73;100633.03;5116197;28;20387;-40
2021/06/21 02:24:48;;;;;;;;;;;;;;;17.02;79.50;100631.94;5115367;28;19908;-40
2021/06/21 02:27:14;;;;;;;;;;;;;;;16.98;80.23;100636.31;5115577;28;19932;-40
2021/06/21 02:29:40;;;;;;;;;;;;;;;16.93;79.17;100629.00;5116249;28;19914;-40
2021/06/21 02:32:06;;;;;;;;;;;;;;;16.95;79.75;100632.25;5115775;28;19907;-40
2021/06/21 02:34:31;;;;;;;;;;;;;;;16.88;78.98;100639.09;5115466;28;19907;-40
2021/06/21 02:36:56;;;;;;;;;;;;;;;16.86;79.97;100644.03;5115691;28;19914;-40
2021/06/21 02:39:21;;;;;;;;;;;;;;;16.86;79.65;100647.56;5114194;28;19911;-40
2021/06/21 02:41:47;;;;;;;;;;;;;;;16.80;79.79;100637.75;5113939;28;20374;-40
2021/06/21 02:44:12;;;;;;;;;;;;;;;16.80;79.31;100636.94;5114736;28;20352;-40
2021/06/21 02:46:37;;;;;;;;;;;;;;;16.68;79.73;100640.75;5115479;28;19930;-40
2021/06/21 02:49:03;;;;;;;;;;;;;;;16.61;80.27;100651.16;5114647;28;20274;-40
2021/06/21 02:51:45;;;;;;;;;;;;;;;16.56;80.18;100640.25;5114912;28;20373;-40
2021/06/21 02:54:28;;;;;;;;;;;;;;;16.51;79.83;100637.53;5115105;28;19911;-40
2021/06/21 02:57:04;;;;;;;;;;;;;;;16.55;79.56;100641.34;5115696;28;19911;-40
2021/06/21 02:59:32;;;;;;;;;;;;;;;16.60;79.80;100641.31;5114896;28;20010;-40
2021/06/21 03:02:00;;;;;;;;;;;;;;;16.62;79.18;100644.59;5115117;28;20367;-40
2021/06/21 03:04:26;;;;;;;;;;;;;;;16.59;79.16;100636.97;5114716;28;19907;-40
2021/06/21 03:06:52;;;;;;;;;;;;;;;16.48;80.20;100636.13;5114706;28;19908;-40
2021/06/21 03:09:18;;;;;;;;;;;;;;;16.45;80.38;100617.59;5115137;28;20344;-41
2021/06/21 03:11:48;;;;;;;;;;;;;;;16.41;80.63;100627.44;5114889;28;20293;-39
2021/06/21 03:14:13;;;;;;;;;;;;;;;16.43;79.28;100622.50;5114447;28;19911;-41
2021/06/21 03:16:41;;;;;;;;;;;;;;;16.37;79.39;100630.97;5114838;28;19908;-40
2021/06/21 03:19:06;;;;;;;;;;;;;;;16.32;79.31;100625.53;5114422;28;19908;-40
2021/06/21 03:21:31;;;;;;;;;;;;;;;16.32;80.07;100626.34;5114844;28;20300;-40
2021/06/21 03:23:57;;;;;;;;;;;;;;;16.26;79.71;100613.00;5115580;28;20324;-41
2021/06/21 03:26:26;;;;;;;;;;;;;;;16.16;81.17;100613.81;5114732;28;19930;-41
2021/06/21 03:28:51;;;;;;;;;;;;;;;15.98;81.62;100617.91;5114106;28;19908;-40
2021/06/21 03:31:17;;;;;;;;;;;;;;;15.95;81.31;100618.44;5115257;28;19915;-41
2021/06/21 03:33:42;;;;;;;;;;;;;;;15.97;81.85;100613.53;5114414;28;19915;-40
2021/06/21 03:36:07;;;;;;;;;;;;;;;15.96;80.89;100603.72;5114425;28;20370;-40
2021/06/21 03:38:33;;;;;;;;;;;;;;;15.94;81.23;100609.44;5114597;28;20065;-40
2021/06/21 03:40:59;;;;;;;;;;;;;;;15.96;80.82;100609.19;5114497;28;19980;-40
2021/06/21 03:43:25;;;;;;;;;;;;;;;15.99;80.25;100616.00;5114195;28;20408;-40
2021/06/21 03:45:51;;;;;;;;;;;;;;;15.98;79.43;100607.00;5113900;28;19916;-40
2021/06/21 03:48:17;;;;;;;;;;;;;;;16.05;79.49;100601.25;5114488;28;20240;-41
2021/06/21 03:50:42;;;;;;;;;;;;;;;16.04;80.18;100600.44;5116231;28;19973;-41
2021/06/21 03:53:08;;;;;;;;;;;;;;;16.03;80.34;100592.53;5118388;28;19915;-40
2021/06/21 03:55:34;;;;;;;;;;;;;;;16.01;80.35;100592.81;5118978;28;20387;-41
2021/06/21 03:57:59;;;;;;;;;;;;;;;15.99;79.38;100594.16;5117414;28;20014;-40
2021/06/21 04:00:27;;;;;;;;;;;;;;;16.00;79.41;100596.63;5118571;28;19914;-41
2021/06/21 04:02:52;;;;;;;;;;;;;;;15.93;80.38;100602.34;5118195;28;19907;-41
2021/06/21 04:05:18;;;;;;;;;;;;;;;15.92;79.27;100598.00;5118888;27;19916;-41
2021/06/21 04:07:44;;;;;;;;;;;;;;;15.91;80.18;100603.72;5118046;27;19915;-41
2021/06/21 04:10:11;;;;;;;;;;;;;;;15.70;80.66;100606.41;5118875;28;19911;-41
2021/06/21 04:12:37;;;;;;;;;;;;;;;15.67;80.69;100622.53;5117074;28;20006;-41
2021/06/21 04:15:06;;;;;;;;;;;;;;;15.61;80.86;100621.63;5118257;28;19994;-41
2021/06/21 04:17:32;;;;;;;;;;;;;;;15.65;80.08;100625.50;5118131;28;19907;-41
2021/06/21 04:19:57;;;;;;;;;;;;;;;15.70;79.93;100622.78;5118201;28;19982;-41
2021/06/21 04:22:22;;;;;;;;;;;;;;;15.69;79.63;100620.31;5117731;28;20294;-41
2021/06/21 04:24:48;;;;;;;;;;;;;;;15.67;80.22;100625.25;5117895;28;20404;-41
2021/06/21 04:27:13;;;;;;;;;;;;;;;15.38;81.45;100633.03;5117654;28;20348;-41
2021/06/21 04:29:39;;;;;;;;;;;;;;;15.28;81.57;100641.19;5117707;28;20399;-41
2021/06/21 04:32:04;;;;;;;;;;;;;;;15.26;80.92;100633.25;5118151;28;20247;-41
2021/06/21 04:34:29;;;;;;;;;;;;;;;15.31;81.01;100640.63;5118091;28;19919;-41
2021/06/21 04:36:55;;;;;;;;;;;;;;;15.36;80.93;100632.47;5118042;28;20012;-41
2021/06/21 04:39:20;;;;;;;;;;;;;;;15.40;81.49;100625.41;5117416;28;19911;-41
2021/06/21 04:41:45;;;;;;;;;;;;;;;15.42;81.33;100639.56;5117690;27;19911;-41
2021/06/21 04:44:10;;;;;;;;;;;;;;;15.44;80.22;100632.78;5118187;28;19911;-41
2021/06/21 04:46:36;;;;;;;;;;;;;;;15.52;81.05;100633.34;5117274;28;20232;-41
2021/06/21 04:49:01;;;;;;;;;;;;;;;15.50;81.17;100641.78;5117237;28;20407;-41
2021/06/21 04:51:28;;;;;;;;;;;;;;;15.39;81.06;100640.13;5117470;28;19908;-41
2021/06/21 04:53:53;;;;;;;;;;;;;;;15.40;81.17;100647.22;5117151;27;19908;-41
2021/06/21 04:56:18;;;;;;;;;;;;;;;15.29;82.41;100648.25;5117443;28;19914;-41
2021/06/21 04:58:43;;;;;;;;;;;;;;;15.33;81.70;100649.38;5116768;28;19908;-41
2021/06/21 05:01:09;;;;;;;;;;;;;;;15.38;80.59;100649.38;5116774;28;19915;-41
2021/06/21 05:03:37;;;;;;;;;;;;;;;15.46;81.06;100651.56;5116705;28;19946;-41
2021/06/21 05:06:06;;;;;;;;;;;;;;;15.49;81.64;100645.59;5117220;28;19908;-41
2021/06/21 05:08:31;;;;;;;;;;;;;;;15.52;80.87;100645.06;5117721;28;20002;-41
2021/06/21 05:10:56;;;;;;;;;;;;;;;15.55;80.10;100649.16;5116626;27;19957;-41
2021/06/21 05:13:22;;;;;;;;;;;;;;;15.59;80.40;100651.06;5116808;28;19907;-41
2021/06/21 05:15:47;;;;;;;;;;;;;;;15.63;80.34;100641.31;5117458;28;19907;-41
2021/06/21 05:18:12;;;;;;;;;;;;;;;15.59;79.86;100642.09;5116680;28;19908;-41
2021/06/21 05:20:38;;;;;;;;;;;;;;;15.64;80.11;100648.38;5116429;28;20003;-41
2021/06/21 05:23:03;;;;;;;;;;;;;;;15.72;79.51;100648.97;5117211;28;19957;-41
2021/06/21 05:25:32;;;;;;;;;;;;;;;15.76;79.35;100653.59;5116487;28;19970;-41
2021/06/21 05:27:57;;;;;;;;;;;;;;;15.49;79.33;100661.94;5116467;28;19990;-41
2021/06/21 05:30:23;;;;;;;;;;;;;;;15.39;79.89;100661.91;5116583;28;20256;-41
2021/06/21 05:32:48;;;;;;;;;;;;;;;15.43;80.31;100668.47;5116093;28;20385;-41
2021/06/21 05:35:13;;;;;;;;;;;;;;;15.39;80.89;100673.63;5116415;28;19968;-41
2021/06/21 05:37:39;;;;;;;;;;;;;;;15.30;80.96;100660.78;5116305;28;19915;-41
2021/06/21 05:40:05;;;;;;;;;;;;;;;15.27;81.06;100666.75;5116050;28;19908;-41
2021/06/21 05:42:30;;;;;;;;;;;;;;;15.28;80.31;100662.97;5116191;28;20017;-41
2021/06/21 05:44:55;;;;;;;;;;;;;;;15.32;80.15;100661.34;5115026;28;20263;-41
2021/06/21 05:47:21;;;;;;;;;;;;;;;15.32;80.99;100672.22;5116336;28;19908;-41
2021/06/21 05:49:46;;;;;;;;;;;;;;;15.32;80.22;100656.69;5116417;28;20343;-41
2021/06/21 05:52:11;;;;;;;;;;;;;;;15.34;80.65;100662.72;5115932;28;19907;-41
2021/06/21 05:54:37;;;;;;;;;;;;;;;15.37;80.64;100651.31;5116036;28;19907;-41
2021/06/21 05:57:03;;;;;;;;;;;;;;;15.33;80.50;100654.81;5116179;28;19908;-41
2021/06/21 05:59:28;;;;;;;;;;;;;;;15.34;80.33;100651.00;5115969;27;19914;-41
2021/06/21 06:01:53;;;;;;;;;;;;;;;15.37;80.75;100645.00;5116198;28;19911;-41
2021/06/21 06:04:18;;;;;;;;;;;;;;;15.39;80.57;100649.13;5115924;27;19907;-41
2021/06/21 06:06:43;;;;;;;;;;;;;;;15.43;80.54;100647.50;5116500;28;19937;-44
2021/06/21 06:09:09;;;;;;;;;;;;;;;15.38;80.85;100644.75;5116031;28;19960;-38
2021/06/21 06:11:34;;;;;;;;;;;;;;;15.35;80.64;100648.00;5114846;28;19960;-38
2021/06/21 06:13:59;;;;;;;;;;;;;;;15.28;80.48;100650.19;5115286;28;19912;-39
2021/06/21 06:16:24;;;;;;;;;;;;;;;15.29;80.08;100651.00;5115321;28;19915;-38
2021/06/21 06:18:50;;;;;;;;;;;;;;;15.35;80.66;100652.63;5115798;28;19912;-40
2021/06/21 06:21:17;;;;;;;;;;;;;;;15.27;80.79;100662.13;5116124;28;20354;-40
2021/06/21 06:23:42;;;;;;;;;;;;;;;15.28;80.55;100661.06;5113720;28;20356;-40
2021/06/21 06:26:08;;;;;;;;;;;;;;;15.16;81.40;100664.00;5115395;28;19907;-40
2021/06/21 06:28:33;;;;;;;;;;;;;;;15.16;81.23;100674.91;5115376;28;20080;-40
2021/06/21 06:30:58;;;;;;;;;;;;;;;15.23;80.69;100662.97;5115374;28;19907;-40
2021/06/21 06:33:24;;;;;;;;;;;;;;;15.30;81.07;100669.78;5115868;28;19943;-40
2021/06/21 06:35:49;;;;;;;;;;;;;;;15.37;80.26;100675.81;5115340;28;19911;-40
2021/06/21 06:38:14;;;;;;;;;;;;;;;15.43;79.71;100677.47;5115261;28;19914;-40
2021/06/21 06:40:40;;;;;;;;;;;;;;;15.35;79.80;100675.25;5115251;28;19915;-41
2021/06/21 06:43:05;;;;;;;;;;;;;;;15.32;80.19;100680.41;5115936;28;19908;-40
2021/06/21 06:45:30;;;;;;;;;;;;;;;15.35;79.89;100683.44;5115013;28;19919;-40
2021/06/21 06:47:56;;;;;;;;;;;;;;;15.35;81.48;100690.78;5114746;28;19914;-40
2021/06/21 06:50:21;;;;;;;;;;;;;;;15.37;81.33;100699.50;5115047;28;19915;-40
2021/06/21 06:52:48;;;;;;;;;;;;;;;15.27;80.76;100703.00;5113359;28;20018;-40
2021/06/21 06:57:57;;;;;;;;;;;;;;;15.23;80.78;100712.00;5115255;28;19980;-40
2021/06/21 07:00:22;;;;;;;;;;;;;;;15.24;80.57;100706.28;5115183;28;19907;-40
2021/06/21 07:02:48;;;;;;;;;;;;;;;15.28;80.32;100717.47;5115073;28;19908;-40
2021/06/21 07:05:13;;;;;;;;;;;;;;;15.28;80.46;100722.91;5114949;28;19907;-39
2021/06/21 07:07:38;;;;;;;;;;;;;;;15.28;81.24;100729.19;5114476;28;19907;-40
2021/06/21 07:10:04;;;;;;;;;;;;;;;15.31;80.89;100728.63;5115086;28;19958;-40
2021/06/21 07:12:29;;;;;;;;;;;;;;;15.28;80.79;100728.38;5114672;28;20371;-39
2021/06/21 07:14:55;;;;;;;;;;;;;;;15.29;80.55;100735.44;5114580;28;19983;-40
2021/06/21 07:17:20;;;;;;;;;;;;;;;15.29;80.08;100740.88;5115302;28;19907;-40
2021/06/21 07:19:45;;;;;;;;;;;;;;;15.18;80.64;100734.56;5114932;28;19908;-40
2021/06/21 07:22:11;;;;;;;;;;;;;;;15.15;80.43;100746.81;5114178;28;19908;-40
2021/06/21 07:24:36;;;;;;;;;;;;;;;15.19;80.27;100739.75;5114323;28;19994;-40
2021/06/21 07:27:02;;;;;;;;;;;;;;;15.26;80.15;100744.13;5114425;28;20247;-40
2021/06/21 07:29:27;;;;;;;;;;;;;;;15.26;81.08;100735.97;5115379;28;20323;-40
2021/06/21 07:31:52;;;;;;;;;;;;;;;15.25;80.21;100751.50;5114094;28;19998;-40
2021/06/21 07:34:17;;;;;;;;;;;;;;;15.22;81.08;100751.19;5115272;28;20350;-40
2021/06/21 07:36:43;;;;;;;;;;;;;;;15.24;80.44;100746.31;5114739;28;19907;-40
2021/06/21 07:39:08;;;;;;;;;;;;;;;15.26;80.84;100755.84;5114376;28;19908;-40
2021/06/21 07:41:34;;;;;;;;;;;;;;;15.25;80.17;100765.09;5114415;28;19955;-40
2021/06/21 07:43:59;;;;;;;;;;;;;;;15.24;80.83;100765.38;5114380;28;19915;-40
2021/06/21 07:46:26;;;;;;;;;;;;;;;15.24;80.32;100770.81;5114537;28;20370;-40
2021/06/21 07:48:51;;;;;;;;;;;;;;;15.18;80.87;100768.06;5115080;28;20225;-40
2021/06/21 07:51:16;;;;;;;;;;;;;;;15.20;81.50;100765.91;5114543;28;19917;-40
2021/06/21 07:53:42;;;;;;;;;;;;;;;15.19;81.76;100763.44;5114275;28;20224;-40
2021/06/21 07:56:09;;;;;;;;;;;;;;;15.22;81.11;100762.91;5114874;28;19952;-40
2021/06/21 07:58:37;;;;;;;;;;;;;;;15.23;81.08;100764.56;5114146;28;19914;-40
2021/06/21 08:01:02;;;;;;;;;;;;;;;15.26;81.04;100774.09;5114162;28;20007;-40
2021/06/21 08:03:27;;;;;;;;;;;;;;;15.25;81.50;100769.75;5113853;28;19912;-40
2021/06/21 08:05:53;;;;;;;;;;;;;;;15.24;80.94;100770.81;5114023;28;19912;-40
2021/06/21 08:08:19;;;;;;;;;;;;;;;15.27;80.74;100778.44;5114025;28;19914;-40
2021/06/21 08:10:44;;;;;;;;;;;;;;;15.29;80.98;100779.03;5114375;28;19914;-40
2021/06/21 08:13:09;;;;;;;;;;;;;;;15.28;82.00;100785.56;5114327;28;19911;-40
2021/06/21 08:15:35;;;;;;;;;;;;;;;15.25;81.21;100791.53;5114882;28;20320;-40
2021/06/21 08:18:00;;;;;;;;;;;;;;;15.26;80.93;100804.06;5114298;28;19964;-40
2021/06/21 08:20:25;;;;;;;;;;;;;;;15.25;80.83;100803.25;5114325;28;19908;-40
2021/06/21 08:22:51;;;;;;;;;;;;;;;15.25;81.16;100810.59;5113988;28;19961;-40
2021/06/21 08:25:16;;;;;;;;;;;;;;;15.28;81.81;100823.72;5114155;28;20246;-40
2021/06/21 08:27:42;;;;;;;;;;;;;;;15.33;81.08;100818.28;5114253;28;19911;-40
2021/06/21 08:30:08;;;;;;;;;;;;;;;15.29;81.59;100825.34;5114791;28;19939;-40
2021/06/21 08:32:33;;;;;;;;;;;;;;;15.24;80.92;100831.56;5113587;28;19960;-40
2021/06/21 08:34:59;;;;;;;;;;;;;;;15.24;81.03;100834.28;5114149;28;19907;-40
2021/06/21 08:37:24;;;;;;;;;;;;;;;15.27;81.46;100836.47;5114892;28;20267;-40
2021/06/21 08:39:50;;;;;;;;;;;;;;;15.22;81.40;100846.53;5117555;28;19957;-40
2021/06/21 08:42:17;;;;;;;;;;;;;;;15.21;80.86;100832.09;5118245;27;19911;-40
2021/06/21 08:44:42;;;;;;;;;;;;;;;15.17;81.73;100842.69;5117443;28;19961;-40
2021/06/21 08:47:11;;;;;;;;;;;;;;;15.13;82.14;100838.03;5117464;28;19907;-40
2021/06/21 08:49:38;;;;;;;;;;;;;;;15.10;82.66;100842.09;5117204;28;19911;-40
2021/06/21 08:52:04;;;;;;;;;;;;;;;15.14;81.98;100842.41;5117664;27;20413;-40
2021/06/21 08:54:29;;;;;;;;;;;;;;;15.18;82.35;100854.41;5118268;27;19950;-40
2021/06/21 08:56:57;;;;;;;;;;;;;;;15.23;82.65;100845.47;5117369;28;20248;-40
2021/06/21 08:59:22;;;;;;;;;;;;;;;15.27;82.10;100852.00;5117235;28;19915;-40
2021/06/21 09:01:47;;;;;;;;;;;;;;;15.29;81.66;100856.13;5117273;28;19907;-40
2021/06/21 09:04:12;;;;;;;;;;;;;;;15.32;82.15;100860.22;5117154;28;19907;-40
2021/06/21 09:06:39;;;;;;;;;;;;;;;15.33;81.93;100856.44;5116847;28;19908;-40
2021/06/21 09:09:05;;;;;;;;;;;;;;;15.32;82.08;100862.94;5117020;28;20438;-40
2021/06/21 09:11:45;;;;;;;;;;;;;;;15.26;82.85;100869.44;5117163;28;19998;-40
2021/06/21 09:14:26;;;;;;;;;;;;;;;15.30;81.46;100865.13;5117390;28;19941;-40
2021/06/21 09:16:52;;;;;;;;;;;;;;;15.33;82.13;100870.88;5116963;28;19988;-40
2021/06/21 09:19:18;;;;;;;;;;;;;;;15.38;81.94;100872.81;5116937;28;20017;-40
2021/06/21 09:21:43;;;;;;;;;;;;;;;15.41;81.05;100862.19;5117679;28;20386;-40
2021/06/21 09:24:25;;;;;;;;;;;;;;;15.43;82.10;100843.69;5116751;28;19961;-40
2021/06/21 09:26:52;;;;;;;;;;;;;;;15.44;81.47;100820.78;5116672;28;19911;-40
2021/06/21 09:29:17;;;;;;;;;;;;;;;15.36;82.94;100804.94;5117276;28;19999;-40
2021/06/21 09:31:52;;;;;;;;;;;;;;;15.33;81.92;100788.31;5117267;28;20327;-40
2021/06/21 09:34:19;;;;;;;;;;;;;;;15.34;82.17;100798.13;5116543;28;19914;-40
2021/06/21 09:36:44;;;;;;;;;;;;;;;15.36;83.21;100790.50;5116865;28;19912;-40
2021/06/21 09:39:18;;;;;;;;;;;;;;;15.40;82.40;100799.78;5116179;27;20004;-40
2021/06/21 09:41:44;;;;;;;;;;;;;;;15.42;83.44;100800.34;5116732;28;19919;-40
2021/06/21 09:44:28;;;;;;;;;;;;;;;15.48;82.63;100804.75;5117260;28;19912;-40
2021/06/21 09:47:09;;;;;;;;;;;;;;;15.49;82.41;100802.84;5116310;28;19915;-40
2021/06/21 09:49:35;;;;;;;;;;;;;;;15.49;82.19;100800.94;5115930;28;19998;-40
2021/06/21 09:52:00;;;;;;;;;;;;;;;15.46;82.15;100796.00;5116323;28;20338;-40
2021/06/21 09:54:32;;;;;;;;;;;;;;;15.49;82.96;100813.75;5116230;28;19958;-40
2021/06/21 09:56:58;;;;;;;;;;;;;;;15.50;83.09;100818.09;5116156;28;19974;-40
2021/06/21 09:59:23;;;;;;;;;;;;;;;15.52;82.97;100833.13;5116055;28;19930;-40
2021/06/21 10:02:02;;;;;;;;;;;;;;;15.57;83.05;100851.41;5116064;28;19911;-40
2021/06/21 10:04:27;;;;;;;;;;;;;;;15.64;83.03;100871.91;5115993;28;19933;-40
2021/06/21 10:06:53;;;;;;;;;;;;;;;15.70;82.61;100872.75;5115676;28;19907;-40
2021/06/21 10:09:18;;;;;;;;;;;;;;;15.77;82.59;100888.91;5115879;28;19911;-40
2021/06/21 10:11:45;;;;;;;;;;;;;;;15.87;82.00;100894.41;5115936;28;19950;-40
2021/06/21 10:14:11;;;;;;;;;;;;;;;15.93;81.80;100909.69;5115740;28;20286;-40
2021/06/21 10:16:37;;;;;;;;;;;;;;;15.85;82.66;100907.44;5116119;28;19930;-40
2021/06/21 10:19:03;;;;;;;;;;;;;;;15.97;81.71;100905.34;5115686;28;20347;-40
2021/06/21 10:21:29;;;;;;;;;;;;;;;16.14;81.58;100916.88;5115639;28;20312;-40
2021/06/21 10:23:55;;;;;;;;;;;;;;;16.28;82.14;100928.13;5115858;28;20407;-40
2021/06/21 10:26:21;;;;;;;;;;;;;;;16.27;81.34;100934.66;5116257;28;19907;-40
2021/06/21 10:28:47;;;;;;;;;;;;;;;16.29;80.66;100939.84;5115499;28;19915;-40
2021/06/21 10:31:12;;;;;;;;;;;;;;;16.29;81.22;100939.84;5115759;28;19908;-40
2021/06/21 10:33:38;;;;;;;;;;;;;;;16.36;80.21;100944.00;5115466;28;19930;-40
2021/06/21 10:36:05;;;;;;;;;;;;;;;16.30;81.05;100941.50;5115456;27;19908;-40
2021/06/21 10:38:30;;;;;;;;;;;;;;;16.30;81.69;100942.34;5115233;28;19912;-40
2021/06/21 10:41:07;;;;;;;;;;;;;;;16.43;81.25;100935.53;5115655;28;20006;-40
2021/06/21 10:43:45;;;;;;;;;;;;;;;16.66;81.55;100937.81;5113443;28;19976;-40
2021/06/21 10:46:19;;;;;;;;;;;;;;;16.83;81.14;100940.31;5115151;28;19907;-40
2021/06/21 10:49:08;;;;;;;;;;;;;;;16.87;80.75;100940.59;5114860;28;19931;-40
2021/06/21 10:51:40;;;;;;;;;;;;;;;16.91;80.15;100942.53;5108119;28;19997;-40
2021/06/21 10:54:07;;;;;;;;;;;;;;;16.96;80.15;100944.44;5114809;28;20002;-40
2021/06/21 10:56:50;;;;;;;;;;;;;;;16.79;77.95;100955.63;5115043;28;19908;-40
2021/06/21 10:59:16;;;;;;;;;;;;;;;17.05;79.50;100958.41;5114549;28;19932;-40
2021/06/21 11:01:48;;;;;;;;;;;;;;;17.15;78.53;100958.41;5114459;28;19907;-40
2021/06/21 11:04:37;;;;;;;;;;;;;;;17.24;78.72;100968.53;5114908;28;19990;-40
2021/06/21 11:07:09;;;;;;;;;;;;;;;17.28;78.80;100968.81;5072114;28;19916;-40
2021/06/21 11:09:47;;;;;;;;;;;;;;;17.27;77.90;100961.69;5072470;28;20288;-40
2021/06/21 11:12:21;;;;;;;;;;;;;;;17.31;78.22;100973.72;5072113;28;19934;-40
2021/06/21 11:15:06;;;;;;;;;;;;;;;17.33;76.68;100973.47;5071873;28;19966;-40
2021/06/21 11:17:33;;;;;;;;;;;;;;;17.43;77.60;100979.75;5072054;28;19909;-40
2021/06/21 11:20:16;;;;;;;;;;;;;;;17.51;77.59;100981.09;5071768;28;19958;-40
2021/06/21 11:22:43;;;;;;;;;;;;;;;17.54;77.09;100971.53;5071781;28;19908;-40
2021/06/21 11:25:24;;;;;;;;;;;;;;;17.56;77.20;100983.81;5071917;28;19912;-41
2021/06/21 11:27:51;;;;;;;;;;;;;;;17.47;77.03;100978.09;5071649;28;19920;-40
2021/06/21 11:30:23;;;;;;;;;;;;;;;17.48;77.55;100987.94;5072192;28;19912;-40
2021/06/21 11:32:56;;;;;;;;;;;;;;;17.57;76.69;100988.22;5071913;28;19908;-40
2021/06/21 11:35:40;;;;;;;;;;;;;;;17.74;77.56;100994.25;5072451;28;19908;-40
2021/06/21 11:38:25;;;;;;;;;;;;;;;17.63;76.52;101003.53;5071803;28;19957;-40
2021/06/21 11:41:08;;;;;;;;;;;;;;;17.62;76.06;101012.00;5072157;28;20061;-40
2021/06/21 11:44:03;;;;;;;;;;;;;;;17.57;75.49;101017.44;5084943;28;19908;-40
2021/06/21 11:46:42;;;;;;;;;;;;;;;17.51;75.78;101031.13;5071611;28;19915;-40
2021/06/21 11:49:09;;;;;;;;;;;;;;;17.49;75.90;101033.31;5071446;28;20376;-40
2021/06/21 11:51:35;;;;;;;;;;;;;;;17.40;75.44;101047.81;5072098;28;19911;-40
2021/06/21 11:54:01;;;;;;;;;;;;;;;17.34;75.43;101049.72;5071411;28;19908;-40
2021/06/21 11:56:26;;;;;;;;;;;;;;;17.31;75.92;101049.41;5072181;28;19953;-40
2021/06/21 11:58:53;;;;;;;;;;;;;;;17.36;76.00;101054.91;5071369;28;20044;-40
2021/06/21 12:01:19;;;;;;;;;;;;;;;17.33;74.48;101050.81;5071361;28;19904;-40
2021/06/21 12:03:45;;;;;;;;;;;;;;;17.40;75.26;101053.25;5071760;28;19908;-47
2021/06/21 12:06:14;;;;;;;;;;;;;;;17.47;75.51;101049.19;5072141;28;19958;-40
2021/06/21 12:08:39;;;;;;;;;;;;;;;17.53;75.26;101055.47;5071347;28;19908;-40
2021/06/21 12:11:11;;;;;;;;;;;;;;;17.59;75.33;101056.28;5072994;28;19970;-40
2021/06/21 12:13:36;;;;;;;;;;;;;;;17.64;75.29;101059.03;5075158;28;19908;-40
2021/06/21 12:16:06;;;;;;;;;;;;;;;17.67;75.39;101059.31;5075587;28;19912;-40
2021/06/21 12:18:31;;;;;;;;;;;;;;;17.71;74.91;101062.31;5074833;28;19912;-40
2021/06/21 12:20:57;;;;;;;;;;;;;;;17.70;74.71;101068.88;5075072;28;19908;-40
2021/06/21 12:23:25;;;;;;;;;;;;;;;17.47;73.33;101068.31;5105824;28;19954;-40
2021/06/21 12:25:51;;;;;;;;;;;;;;;17.35;74.32;101081.41;5118733;28;19993;-40
2021/06/21 12:28:17;;;;;;;;;;;;;;;17.40;74.96;101080.59;5117908;28;20359;-40
2021/06/21 12:30:46;;;;;;;;;;;;;;;17.36;74.51;101080.31;5117889;28;19908;-40
2021/06/21 12:33:26;;;;;;;;;;;;;;;17.32;74.02;101083.84;5118622;28;20284;-40
2021/06/21 12:36:11;;;;;;;;;;;;;;;17.30;74.31;101096.97;5118269;28;19911;-40
2021/06/21 12:38:45;;;;;;;;;;;;;;;17.28;74.74;101086.31;5117584;28;19907;-40
2021/06/21 12:41:11;;;;;;;;;;;;;;;17.35;74.22;101086.88;5118123;27;19934;-40